createdAt,value
2019-03-16T00:03:33.693Z,98454.52
2019-03-16T00:08:37.259Z,98456.11
2019-03-16T00:13:40.795Z,98458.95
2019-03-16T00:18:44.327Z,98457.31
2019-03-16T00:23:47.894Z,98464.43
2019-03-16T00:28:51.409Z,98460.05
2019-03-16T00:33:54.979Z,98469.41
2019-03-16T00:38:58.607Z,98504.44
2019-03-16T00:44:02.209Z,98533.64
2019-03-16T00:49:05.771Z,98516.91
2019-03-16T00:54:09.347Z,98539.91
2019-03-16T00:59:12.904Z,98529.94
2019-03-16T01:04:16.477Z,98512.70
2019-03-16T01:09:20.062Z,98522.36
2019-03-16T01:14:23.667Z,98558.73
2019-03-16T01:19:27.195Z,98509.54
2019-03-16T01:24:30.783Z,98529.68
2019-03-16T01:29:34.321Z,98550.28
2019-03-16T01:34:37.874Z,98549.02
2019-03-16T01:39:41.416Z,98559.13
2019-03-16T01:44:44.953Z,98567.10
2019-03-16T01:49:48.482Z,98578.38
2019-03-16T01:54:52.061Z,98597.47
2019-03-16T01:59:55.634Z,98594.55
2019-03-16T02:04:59.171Z,98596.33
2019-03-16T02:10:02.705Z,98610.48
2019-03-16T02:15:08.505Z,98634.38
2019-03-16T02:20:12.070Z,98647.55
2019-03-16T02:25:15.605Z,98649.05
2019-03-16T02:30:19.196Z,98667.19
2019-03-16T02:35:22.713Z,98669.33
2019-03-16T02:40:26.254Z,98686.38
2019-03-16T02:45:29.825Z,98686.23
2019-03-16T02:50:33.365Z,98679.61
2019-03-16T02:55:36.946Z,98701.07
2019-03-16T03:00:40.483Z,98717.08
2019-03-16T03:05:44.017Z,98727.71
2019-03-16T03:10:47.615Z,98739.61
2019-03-16T03:15:51.160Z,98738.78
2019-03-16T03:20:54.698Z,98756.19
2019-03-16T03:25:58.236Z,98756.78
2019-03-16T03:31:01.808Z,98778.45
2019-03-16T03:36:05.381Z,98780.44
2019-03-16T03:41:08.962Z,98783.40
2019-03-16T03:46:12.484Z,98799.02
2019-03-16T03:51:16.021Z,98804.02
2019-03-16T03:56:19.588Z,98823.02
2019-03-16T04:01:23.132Z,98827.63
2019-03-16T04:06:26.744Z,98838.66
2019-03-16T04:11:30.268Z,98842.47
2019-03-16T04:16:33.809Z,98837.69
2019-03-16T04:21:37.395Z,98845.14
2019-03-16T04:26:40.927Z,98855.25
2019-03-16T04:31:44.487Z,98857.64
2019-03-16T04:36:48.023Z,98866.14
2019-03-16T04:41:51.558Z,98877.30
2019-03-16T04:46:55.123Z,98880.50
2019-03-16T04:51:58.785Z,98900.91
2019-03-16T04:57:02.349Z,98912.20
2019-03-16T05:02:05.913Z,98906.09
2019-03-16T05:07:09.481Z,98930.16
2019-03-16T05:12:13.045Z,98943.00
2019-03-16T05:17:16.604Z,98936.66
2019-03-16T05:22:20.147Z,98943.86
2019-03-16T05:27:23.686Z,98937.28
2019-03-16T05:32:27.342Z,98949.66
2019-03-16T05:37:30.888Z,98962.80
2019-03-16T05:42:34.424Z,98959.92
2019-03-16T05:47:37.959Z,98972.91
2019-03-16T05:52:41.524Z,98968.48
2019-03-16T05:57:45.083Z,98981.39
2019-03-16T06:02:48.626Z,98990.56
2019-03-16T06:07:52.191Z,98991.25
2019-03-16T06:12:55.761Z,99001.78
2019-03-16T06:17:59.305Z,99029.67
2019-03-16T06:23:02.866Z,99025.34
2019-03-16T06:28:06.403Z,99057.03
2019-03-16T06:33:09.979Z,99069.04
2019-03-16T06:38:13.524Z,99078.31
2019-03-16T06:43:17.072Z,99084.27
2019-03-16T06:48:20.741Z,99104.58
2019-03-16T06:53:24.432Z,99101.19
2019-03-16T06:58:28.003Z,99108.08
2019-03-16T07:03:31.553Z,99118.89
2019-03-16T07:08:35.117Z,99122.61
2019-03-16T07:13:38.688Z,99130.73
2019-03-16T07:18:42.273Z,99133.91
2019-03-16T07:23:45.811Z,99153.53
2019-03-16T07:28:49.482Z,99137.80
2019-03-16T07:33:52.999Z,99155.49
2019-03-16T07:38:56.533Z,99158.95
2019-03-16T07:44:00.072Z,99156.06
2019-03-16T07:49:03.723Z,99167.65
2019-03-16T07:54:07.239Z,99183.40
2019-03-16T07:59:10.811Z,99200.25
2019-03-16T08:04:14.339Z,99197.96
2019-03-16T08:09:17.909Z,99192.48
2019-03-16T08:14:21.655Z,99201.19
2019-03-16T08:19:25.285Z,99202.89
2019-03-16T08:24:29.029Z,99222.38
2019-03-16T08:29:32.559Z,99227.29
2019-03-16T08:34:36.249Z,99220.95
2019-03-16T08:39:40.773Z,99234.50
2019-03-16T08:44:44.311Z,99246.30
2019-03-16T08:49:47.883Z,99237.39
2019-03-16T08:54:51.469Z,99258.75
2019-03-16T08:59:55.219Z,99253.08
2019-03-16T09:04:58.760Z,99254.23
2019-03-16T09:10:02.323Z,99254.23
2019-03-16T09:15:09.146Z,99263.16
2019-03-16T09:20:12.720Z,99263.91
2019-03-16T09:25:16.400Z,99275.98
2019-03-16T09:30:19.920Z,99269.78
2019-03-16T09:35:23.599Z,99284.14
2019-03-16T09:40:27.129Z,99306.58
2019-03-16T09:45:30.689Z,99307.44
2019-03-16T09:50:34.249Z,99311.12
2019-03-16T09:55:37.799Z,99315.62
2019-03-16T10:00:41.362Z,99329.59
2019-03-16T10:05:44.908Z,99317.63
2019-03-16T10:10:48.445Z,99325.69
2019-03-16T10:15:52.008Z,99320.93
2019-03-16T10:20:55.571Z,99317.84
2019-03-16T10:25:59.138Z,99322.48
2019-03-16T10:31:02.709Z,99317.45
2019-03-16T10:36:06.267Z,99307.73
2019-03-16T10:41:09.848Z,99318.38
2019-03-16T10:46:13.394Z,99318.06
2019-03-16T10:51:16.955Z,99327.63
2019-03-16T10:56:20.501Z,99333.98
2019-03-16T11:01:24.040Z,99334.74
2019-03-16T11:06:27.604Z,99342.16
2019-03-16T11:11:31.201Z,99334.09
2019-03-16T11:16:34.744Z,99335.87
2019-03-16T11:21:38.327Z,99337.70
2019-03-16T11:26:41.917Z,99340.09
2019-03-16T11:31:45.857Z,99331.63
2019-03-16T11:36:49.425Z,99319.39
2019-03-16T11:41:53.013Z,99315.54
2019-03-16T11:46:56.531Z,99328.93
2019-03-16T11:52:00.090Z,99327.97
2019-03-16T11:57:03.663Z,99315.52
2019-03-16T12:02:07.222Z,99306.59
2019-03-16T12:07:10.763Z,99340.84
2019-03-16T12:12:14.441Z,99332.80
2019-03-16T12:17:17.965Z,99343.41
2019-03-16T12:22:21.699Z,99334.75
2019-03-16T12:27:25.215Z,99334.16
2019-03-16T12:32:28.776Z,99345.17
2019-03-16T12:37:32.340Z,99339.80
2019-03-16T12:42:35.971Z,99336.67
2019-03-16T12:47:39.520Z,99348.13
2019-03-16T12:52:43.094Z,99348.28
2019-03-16T12:57:48.006Z,99343.42
2019-03-16T13:02:51.902Z,99335.34
2019-03-16T13:07:55.424Z,99344.66
2019-03-16T13:12:59.107Z,99346.58
2019-03-16T13:18:02.634Z,99340.73
2019-03-16T13:23:06.210Z,99341.68
2019-03-16T13:28:09.738Z,99351.78
2019-03-16T13:33:13.270Z,99342.03
2019-03-16T13:38:16.832Z,99344.59
2019-03-16T13:43:20.379Z,99345.31
2019-03-16T13:48:23.978Z,99345.21
2019-03-16T13:53:27.512Z,99344.42
2019-03-16T13:58:31.348Z,99343.59
2019-03-16T14:03:34.883Z,99339.28
2019-03-16T14:08:38.744Z,99347.37
2019-03-16T14:13:42.300Z,99349.43
2019-03-16T14:18:46.148Z,99350.05
2019-03-16T14:23:49.688Z,99355.16
2019-03-16T14:28:56.221Z,99363.19
2019-03-16T14:33:59.796Z,99375.94
2019-03-16T14:39:04.957Z,99372.42
2019-03-16T14:44:08.486Z,99371.13
2019-03-16T14:49:12.019Z,99372.01
2019-03-16T14:54:15.568Z,99386.56
2019-03-16T14:59:19.155Z,99386.08
2019-03-16T15:04:22.706Z,99390.52
2019-03-16T15:09:26.637Z,99389.47
2019-03-16T15:14:30.171Z,99378.94
2019-03-16T15:19:33.764Z,99375.27
2019-03-16T15:24:37.326Z,99370.91
2019-03-16T15:29:40.869Z,99357.35
2019-03-16T15:34:44.402Z,99365.13
2019-03-16T15:39:47.943Z,99365.30
2019-03-16T15:44:51.512Z,99364.83
2019-03-16T15:49:57.399Z,99367.09
2019-03-16T15:55:00.475Z,99365.34
2019-03-16T16:00:10.738Z,99369.78
2019-03-16T16:05:14.332Z,99373.27
2019-03-16T16:10:19.126Z,99381.07
2019-03-16T16:15:22.655Z,99379.32
2019-03-16T16:20:26.265Z,99380.66
2019-03-16T16:25:29.793Z,99389.17
2019-03-16T16:30:33.528Z,99387.80
2019-03-16T16:35:37.052Z,99394.89
2019-03-16T16:40:40.615Z,99391.41
2019-03-16T16:45:46.660Z,99381.95
2019-03-16T16:50:49.461Z,99383.91
2019-03-16T16:55:53.006Z,99382.45
2019-03-16T17:00:56.593Z,99378.75
2019-03-16T17:06:00.137Z,99374.15
2019-03-16T17:11:03.683Z,99368.87
2019-03-16T17:16:07.299Z,99377.11
2019-03-16T17:21:10.835Z,99368.89
2019-03-16T17:26:14.372Z,99366.23
2019-03-16T17:31:17.931Z,99361.44
2019-03-16T17:36:22.376Z,99365.06
2019-03-16T17:41:26.003Z,99357.77
2019-03-16T17:46:29.562Z,99356.14
2019-03-16T17:51:33.125Z,99349.15
2019-03-16T17:56:36.661Z,99351.03
2019-03-16T18:01:40.205Z,99352.81
2019-03-16T18:06:43.783Z,99353.37
2019-03-16T18:11:47.322Z,99352.19
2019-03-16T18:16:50.881Z,99352.09
2019-03-16T18:21:54.535Z,99351.96
2019-03-16T18:26:58.075Z,99346.00
2019-03-16T18:32:07.758Z,99341.41
2019-03-16T18:37:06.896Z,99340.91
2019-03-16T18:42:10.459Z,99343.59
2019-03-16T18:47:14.021Z,99334.77
2019-03-16T18:52:17.591Z,99326.83
2019-03-16T18:57:21.152Z,99328.25
2019-03-16T19:02:24.727Z,99329.95
2019-03-16T19:07:28.253Z,99317.91
2019-03-16T19:12:31.925Z,99313.42
2019-03-16T19:17:35.490Z,99306.70
2019-03-16T19:22:39.016Z,99307.09
2019-03-16T19:27:42.578Z,99289.61
2019-03-16T19:32:46.156Z,99292.41
2019-03-16T19:37:49.735Z,99294.20
2019-03-16T19:42:53.362Z,99290.34
2019-03-16T19:47:57.139Z,99288.08
2019-03-16T19:53:00.681Z,99294.58
2019-03-16T19:58:04.866Z,99296.38
2019-03-16T20:03:08.428Z,99291.54
2019-03-16T20:08:11.990Z,99289.92
2019-03-16T20:13:15.897Z,99285.95
2019-03-16T20:18:19.431Z,99278.53
2019-03-16T20:23:22.976Z,99275.63
2019-03-16T20:28:26.550Z,99269.78
2019-03-16T20:33:30.293Z,99275.48
2019-03-16T20:38:33.819Z,99274.16
2019-03-16T20:43:37.395Z,99274.85
2019-03-16T20:48:40.952Z,99278.37
2019-03-16T20:53:44.497Z,99273.51
2019-03-16T20:58:48.093Z,99271.52
2019-03-16T21:03:51.700Z,99267.05
2019-03-16T21:09:03.039Z,99267.92
2019-03-16T21:19:03.116Z,99274.38
2019-03-16T21:24:07.524Z,99276.08
2019-03-16T21:29:11.140Z,99277.36
2019-03-16T21:34:14.713Z,99283.52
2019-03-16T21:39:18.272Z,99278.14
2019-03-16T21:44:21.862Z,99274.53
2019-03-16T21:49:25.461Z,99280.70
2019-03-16T21:54:29.181Z,99271.84
2019-03-16T21:59:32.730Z,99269.61
2019-03-16T22:04:36.294Z,99269.16
2019-03-16T22:09:39.846Z,99263.86
2019-03-16T22:14:43.530Z,99259.39
2019-03-16T22:19:47.082Z,99264.06
2019-03-16T22:24:50.656Z,99263.49
2019-03-16T22:29:54.208Z,99268.83
2019-03-16T22:34:58.023Z,99252.49
2019-03-16T22:40:02.135Z,99248.59
2019-03-16T22:45:07.981Z,99248.86
2019-03-16T22:50:16.915Z,99251.43
2019-03-16T22:55:20.504Z,99243.93
2019-03-16T23:00:37.164Z,99241.31
2019-03-16T23:05:40.258Z,99250.80
2019-03-16T23:10:43.807Z,99237.50
2019-03-16T23:15:47.369Z,99233.00
2019-03-16T23:20:50.959Z,99236.13
2019-03-16T23:25:54.489Z,99238.63
2019-03-16T23:30:58.019Z,99239.63
2019-03-16T23:36:01.588Z,99236.81
2019-03-16T23:41:05.186Z,99236.48
2019-03-16T23:46:08.782Z,99234.19
2019-03-16T23:51:12.300Z,99230.70
2019-03-16T23:56:15.872Z,99223.17
